Time;durP1;ratioP1;P1;durP2;ratioP2;P2;SDS_P1;SDS_P2;PMS_P1;PMS_P2;Temp;Humidity;BMP_temperature;BMP_pressure;BME280_temperature;BME280_humidity;BME280_pressure;Samples;Min_cycle;Max_cycle;Signal;HPM_P1;HPM_P2
2022/08/25 16:05:51;;;;;;;;;6.00;4.00;;;;;27.31;54.56;98390.63;6207680;22;101941;-96
2022/08/25 16:08:19;;;;;;;;;5.67;5.67;;;;;27.26;54.85;98391.56;6160532;22;102540;-96
2022/08/25 16:10:50;;;;;;;;;6.00;5.00;;;;;27.24;54.94;98379.97;6152480;22;102968;-96
2022/08/25 16:15:49;;;;;;;;;6.67;5.67;;;;;27.23;55.14;98389.44;6151034;22;102501;-96
2022/08/25 16:18:23;;;;;;;;;6.67;6.00;;;;;27.23;54.41;98392.19;6077102;22;102132;-96
2022/08/25 16:20:51;;;;;;;;;7.00;6.00;;;;;27.29;54.57;98401.25;6164529;22;105569;-96
2022/08/25 16:23:22;;;;;;;;;7.00;6.33;;;;;27.24;54.68;98398.56;6174502;22;102273;-96
2022/08/25 16:25:50;;;;;;;;;7.00;6.33;;;;;27.21;54.86;98393.63;6140849;22;102348;-96
2022/08/25 16:28:21;;;;;;;;;5.33;5.33;;;;;27.21;55.28;98405.56;6090825;22;102285;-96
2022/08/25 16:30:50;;;;;;;;;6.00;6.00;;;;;27.21;55.14;98400.00;6153266;22;109937;-96
2022/08/25 16:33:20;;;;;;;;;7.00;5.67;;;;;27.18;54.97;98403.44;6150516;22;102639;-96
2022/08/25 16:35:47;;;;;;;;;5.33;5.33;;;;;27.19;54.98;98407.84;6181442;22;102268;-96
2022/08/25 16:38:16;;;;;;;;;5.00;5.00;;;;;27.12;55.36;98396.34;6154303;22;102239;-96
2022/08/25 16:40:44;;;;;;;;;6.00;6.00;;;;;27.11;55.28;98405.00;6177132;22;106601;-96
2022/08/25 16:43:12;;;;;;;;;6.67;5.67;;;;;27.10;55.21;98395.84;6150855;22;102364;-96
2022/08/25 16:45:40;;;;;;;;;6.33;6.00;;;;;27.10;55.50;98404.19;6180669;22;102026;-96
2022/08/25 16:48:08;;;;;;;;;5.33;5.33;;;;;27.12;55.20;98399.13;6147309;22;102593;-96
2022/08/25 16:50:38;;;;;;;;;5.00;5.00;;;;;27.05;55.20;98395.97;6154491;22;104520;-96
2022/08/25 16:56:00;;;;;;;;;6.00;6.00;;;;;27.05;55.60;98398.75;6173151;22;104802;-96
2022/08/25 16:58:30;;;;;;;;;4.33;4.00;;;;;27.03;55.57;98399.03;6152964;22;102389;-96
2022/08/25 17:01:10;;;;;;;;;5.00;4.33;;;;;27.01;55.38;98393.00;6175296;22;104477;-96
2022/08/25 17:03:39;;;;;;;;;4.00;4.00;;;;;27.05;55.58;98404.28;6180314;22;102159;-96
2022/08/25 17:06:10;;;;;;;;;6.00;6.00;;;;;27.04;55.79;98409.03;6153083;22;102308;-96
2022/08/25 17:08:42;;;;;;;;;7.00;5.00;;;;;27.03;55.39;98406.53;6181443;22;102650;-96
2022/08/25 17:11:15;;;;;;;;;5.00;5.00;;;;;27.02;55.33;98402.13;6152602;22;104132;-96
2022/08/25 17:13:48;;;;;;;;;4.67;4.67;;;;;27.01;55.38;98404.09;6178599;22;102646;-96
2022/08/25 17:16:16;;;;;;;;;6.00;5.00;;;;;26.95;55.44;98393.41;6151376;22;102154;-96
2022/08/25 17:18:45;;;;;;;;;6.00;5.00;;;;;26.99;55.75;98403.59;6179316;22;102127;-96
2022/08/25 17:21:15;;;;;;;;;5.00;5.00;;;;;26.95;55.75;98397.03;6127549;22;108308;-96
2022/08/25 17:23:51;;;;;;;;;5.33;5.33;;;;;27.01;55.55;98420.75;6144142;22;102146;-96
2022/08/25 17:26:19;;;;;;;;;4.00;4.00;;;;;26.96;55.87;98411.72;6146929;22;102362;-96
2022/08/25 17:28:57;;;;;;;;;5.33;5.33;;;;;26.99;55.76;98411.09;6100192;22;102465;-96
2022/08/25 17:31:27;;;;;;;;;5.33;4.33;;;;;26.93;56.10;98409.56;6149071;22;103928;-96
2022/08/25 17:33:56;;;;;;;;;6.00;5.00;;;;;26.96;55.98;98408.94;6148197;22;102329;-96
2022/08/25 17:36:25;;;;;;;;;4.33;4.33;;;;;26.93;56.01;98415.09;6153076;22;102252;-96
2022/08/25 17:38:54;;;;;;;;;6.33;4.00;;;;;26.92;55.78;98407.94;6152727;22;102600;-96
2022/08/25 17:41:22;;;;;;;;;5.67;5.00;;;;;26.91;55.75;98409.88;6101631;22;104950;-96
2022/08/25 17:43:51;;;;;;;;;6.67;6.67;;;;;26.92;55.88;98417.09;6139510;22;102442;-96
2022/08/25 17:46:19;;;;;;;;;6.00;6.00;;;;;26.89;56.08;98409.34;6127623;22;102424;-96
2022/08/25 17:48:47;;;;;;;;;6.00;5.00;;;;;26.91;55.78;98409.06;6154192;22;102407;-96
2022/08/25 17:51:15;;;;;;;;;7.00;6.00;;;;;26.85;56.08;98401.94;6178804;22;109634;-96
2022/08/25 17:53:43;;;;;;;;;6.00;6.00;;;;;26.88;55.74;98407.72;6122610;22;102110;-96
2022/08/25 17:56:14;;;;;;;;;7.00;5.67;;;;;26.83;56.15;98399.50;6177004;22;102323;-96
2022/08/25 17:58:43;;;;;;;;;6.00;6.00;;;;;26.86;56.29;98414.72;6107799;22;102594;-96
2022/08/25 18:01:19;;;;;;;;;5.67;5.67;;;;;26.91;56.14;98417.38;6127884;22;102034;-96
2022/08/25 18:03:48;;;;;;;;;4.67;4.33;;;;;26.83;56.04;98399.50;6148992;22;102506;-96
2022/08/25 18:06:16;;;;;;;;;6.00;6.00;;;;;26.83;56.46;98405.03;6160142;22;102437;-96
2022/08/25 18:08:46;;;;;;;;;6.00;5.00;;;;;26.80;56.19;98419.53;6153911;22;102495;-96
2022/08/25 18:11:23;;;;;;;;;5.33;5.00;;;;;26.82;56.40;98410.91;6123367;22;109276;-96
2022/08/25 18:13:53;;;;;;;;;5.33;5.33;;;;;26.82;56.18;98411.72;6153896;22;102262;-96
2022/08/25 18:16:21;;;;;;;;;5.67;5.67;;;;;26.80;56.44;98416.75;6114794;22;102294;-96
2022/08/25 18:18:50;;;;;;;;;5.33;4.33;;;;;26.83;56.51;98416.13;6148256;22;102341;-96
2022/08/25 18:21:19;;;;;;;;;6.33;5.33;;;;;26.82;56.12;98413.66;6131808;22;103284;-96
2022/08/25 18:23:49;;;;;;;;;5.00;5.00;;;;;26.76;56.34;98403.81;6089342;22;109324;-96
2022/08/25 18:26:19;;;;;;;;;4.67;3.67;;;;;26.75;56.16;98413.28;6089025;22;102126;-96
2022/08/25 18:28:51;;;;;;;;;6.00;5.33;;;;;26.70;56.12;98408.66;6080299;22;102582;-96
2022/08/25 18:31:21;;;;;;;;;5.00;5.00;;;;;26.74;56.24;98422.72;6151298;22;103230;-96
2022/08/25 18:33:49;;;;;;;;;6.67;6.00;;;;;26.65;56.62;98414.31;6170179;22;102190;-96
2022/08/25 18:36:21;;;;;;;;;5.00;5.00;;;;;26.68;56.71;98419.25;6181824;22;102065;-96
2022/08/25 18:41:37;;;;;;;;;4.67;4.67;;;;;26.64;56.71;98413.50;6157812;22;103414;-96
2022/08/25 18:44:06;;;;;;;;;5.00;5.00;;;;;26.64;56.87;98421.81;6170269;22;102489;-96
2022/08/25 18:46:36;;;;;;;;;5.33;5.33;;;;;26.64;56.74;98421.81;6172150;22;102245;-96
2022/08/25 18:49:05;;;;;;;;;4.67;4.67;;;;;26.63;56.84;98417.41;6147168;22;102587;-96
2022/08/25 18:51:34;;;;;;;;;5.33;5.33;;;;;26.65;56.70;98425.41;6169320;22;103228;-96
2022/08/25 18:54:02;;;;;;;;;5.33;5.33;;;;;26.62;56.81;98424.06;6173064;22;102584;-96
2022/08/25 18:56:30;;;;;;;;;4.00;4.00;;;;;26.61;56.81;98436.28;6161859;22;102428;-96
2022/08/25 18:58:58;;;;;;;;;4.67;4.67;;;;;26.63;56.76;98436.81;6153361;22;104750;-96
2022/08/25 19:01:26;;;;;;;;;4.33;4.00;;;;;26.54;56.63;98412.88;6103617;22;105405;-96
2022/08/25 19:03:55;;;;;;;;;7.67;6.00;;;;;26.56;56.77;98427.28;6129360;22;102222;-96
2022/08/25 19:06:23;;;;;;;;;5.00;5.00;;;;;26.56;57.09;98433.66;6166527;22;104366;-96
2022/08/25 19:08:52;;;;;;;;;6.33;5.67;;;;;26.61;56.83;98427.16;6143454;22;102140;-96
2022/08/25 19:11:19;;;;;;;;;4.33;3.67;;;;;26.54;56.91;98424.78;6140852;22;105201;-96
2022/08/25 19:13:49;;;;;;;;;5.67;4.67;;;;;26.56;56.94;98418.94;6149723;22;104735;-96
2022/08/25 19:16:28;;;;;;;;;6.00;6.00;;;;;26.56;56.97;98436.41;6150148;22;103007;-96
2022/08/25 19:18:57;;;;;;;;;4.33;4.33;;;;;26.53;56.86;98414.81;6138875;22;102436;-96
2022/08/25 19:21:31;;;;;;;;;6.00;5.00;;;;;26.52;57.05;98420.72;6163932;22;102959;-96
2022/08/25 19:23:59;;;;;;;;;5.67;5.67;;;;;26.52;56.93;98415.16;6105206;22;103140;-96
2022/08/25 19:26:29;;;;;;;;;6.00;6.00;;;;;26.52;57.04;98421.50;6105179;22;102515;-96
2022/08/25 19:28:57;;;;;;;;;5.67;5.00;;;;;26.49;57.24;98412.97;6155041;22;102137;-96
2022/08/25 19:31:27;;;;;;;;;6.00;6.00;;;;;26.49;57.08;98415.75;6151922;22;104927;-96
2022/08/25 19:34:21;;;;;;;;;6.00;6.00;;;;;26.53;57.07;98433.41;6130047;22;103104;-96
2022/08/25 19:36:49;;;;;;;;;5.67;5.67;;;;;26.49;57.14;98424.91;6147299;22;102050;-96
2022/08/25 19:39:17;;;;;;;;;6.00;6.00;;;;;26.47;57.22;98427.19;6090132;22;102388;-96
2022/08/25 19:41:45;;;;;;;;;6.33;6.33;;;;;26.45;57.10;98425.81;6154806;22;106805;-96
2022/08/25 19:44:14;;;;;;;;;5.33;5.33;;;;;26.42;57.20;98418.97;6058732;22;102164;-96
2022/08/25 19:46:45;;;;;;;;;6.67;6.00;;;;;26.46;57.37;98433.03;6064566;22;102373;-96
2022/08/25 19:49:21;;;;;;;;;5.33;5.00;;;;;26.39;57.26;98411.22;6133266;22;101885;-96
2022/08/25 19:51:50;;;;;;;;;6.00;5.00;;;;;26.40;57.07;98423.97;6197219;22;106500;-96
2022/08/25 19:54:27;;;;;;;;;6.00;6.00;;;;;26.40;57.38;98415.66;6110241;22;102363;-96
2022/08/25 19:56:54;;;;;;;;;7.00;6.33;;;;;26.40;57.50;98423.97;6145719;22;102210;-96
2022/08/25 19:59:27;;;;;;;;;5.00;4.67;;;;;26.43;57.21;98426.13;6129295;22;102629;-96
2022/08/25 20:02:10;;;;;;;;;3.33;3.33;;;;;26.38;57.49;98423.47;6172197;22;104389;-96
2022/08/25 20:04:42;;;;;;;;;7.00;7.00;;;;;26.39;57.31;98422.31;6105725;22;102788;-96
2022/08/25 20:07:18;;;;;;;;;5.00;5.00;;;;;26.41;57.18;98420.09;6012254;22;101946;-96
2022/08/25 20:09:52;;;;;;;;;6.33;6.33;;;;;26.38;57.19;98423.47;6018876;22;102995;-96
2022/08/25 20:12:23;;;;;;;;;8.00;6.67;;;;;26.45;57.19;98421.09;5996469;22;103501;-96
2022/08/25 20:14:55;;;;;;;;;6.00;5.67;;;;;26.39;56.94;98410.41;5975589;22;102487;-96
2022/08/25 20:17:23;;;;;;;;;7.00;7.00;;;;;26.41;57.10;98425.63;6028930;22;102156;-96
2022/08/25 20:19:56;;;;;;;;;5.67;5.67;;;;;26.46;56.97;98428.31;5971929;22;102612;-96
2022/08/25 20:22:28;;;;;;;;;6.00;5.33;;;;;26.40;57.38;98421.22;6010364;22;104583;-96
2022/08/25 20:24:59;;;;;;;;;6.00;6.00;;;;;26.40;57.00;98410.13;5980386;22;102461;-96
2022/08/25 20:27:44;;;;;;;;;6.33;5.67;;;;;26.39;57.13;98422.31;6019683;22;101905;-96
2022/08/25 20:30:19;;;;;;;;;6.00;6.00;;;;;26.35;57.30;98410.22;6022591;22;102559;-96
2022/08/25 20:32:48;;;;;;;;;4.67;4.67;;;;;26.31;57.12;98409.19;6046918;22;106597;-96
2022/08/25 20:35:16;;;;;;;;;7.33;6.33;;;;;26.31;57.46;98414.72;6094371;22;102414;-96
2022/08/25 20:37:52;;;;;;;;;6.33;6.00;;;;;26.30;57.27;98410.31;5944631;22;102220;-96
2022/08/25 20:40:27;;;;;;;;;5.33;5.00;;;;;26.33;57.33;98414.44;6041826;22;102199;-96
2022/08/25 20:42:55;;;;;;;;;5.00;5.00;;;;;26.28;57.57;98409.81;6145733;22;104863;-96
2022/08/25 20:45:28;;;;;;;;;5.00;5.00;;;;;26.25;57.30;98404.91;6112218;22;102211;-96
2022/08/25 20:47:57;;;;;;;;;7.00;6.33;;;;;26.31;57.58;98409.19;6058357;22;104641;-96
2022/08/25 20:50:27;;;;;;;;;6.33;5.00;;;;;26.30;57.56;98409.53;6116401;22;102516;-96
2022/08/25 20:52:57;;;;;;;;;5.00;5.00;;;;;26.24;57.77;98400.47;6112944;22;103113;-96
2022/08/25 20:55:27;;;;;;;;;6.33;6.33;;;;;26.24;57.44;98400.47;6124406;22;102309;-96
2022/08/25 20:57:57;;;;;;;;;6.33;5.67;;;;;26.22;57.66;98402.72;6102306;22;103003;-96
2022/08/25 21:00:27;;;;;;;;;6.00;5.67;;;;;26.28;57.63;98409.00;6076887;22;102209;-96
2022/08/25 21:02:55;;;;;;;;;5.00;5.00;;;;;26.24;57.80;98403.25;6087597;22;103079;-96
2022/08/25 21:05:26;;;;;;;;;6.33;6.33;;;;;26.18;57.72;98399.72;6065977;22;101919;-96
2022/08/25 21:07:54;;;;;;;;;6.67;5.33;;;;;26.21;57.80;98403.84;6090765;22;103826;-96
2022/08/25 21:10:23;;;;;;;;;6.00;5.33;;;;;26.16;57.82;98395.63;6089681;22;102196;-96
2022/08/25 21:12:51;;;;;;;;;6.00;6.00;;;;;26.23;57.83;98404.38;6095505;22;102330;-96
2022/08/25 21:15:20;;;;;;;;;5.33;5.33;;;;;26.16;57.88;98398.41;6056465;22;103471;-96
2022/08/25 21:17:52;;;;;;;;;6.00;6.00;;;;;26.22;57.83;98413.81;6082438;22;102272;-96
2022/08/25 21:20:23;;;;;;;;;6.00;6.00;;;;;26.17;57.88;98402.78;6084566;22;102335;-96
2022/08/25 21:22:58;;;;;;;;;7.33;7.33;;;;;26.17;57.88;98395.28;5963500;22;103473;-96
2022/08/25 21:25:28;;;;;;;;;6.00;5.67;;;;;26.20;57.88;98399.41;6031421;22;102221;-96
2022/08/25 21:27:57;;;;;;;;;6.00;6.00;;;;;26.16;57.78;98396.41;6065945;22;101964;-96
2022/08/25 21:30:27;;;;;;;;;9.67;7.00;;;;;26.13;57.80;98397.03;6070548;22;102395;-96
2022/08/25 21:32:58;;;;;;;;;5.67;5.67;;;;;26.13;58.04;98393.44;6040354;22;103369;-96
2022/08/25 21:35:29;;;;;;;;;6.00;5.67;;;;;26.13;57.70;98394.28;6113637;22;101889;-96
2022/08/25 21:38:01;;;;;;;;;8.00;6.00;;;;;26.15;57.79;98399.50;6011128;22;102258;-96
2022/08/25 21:40:34;;;;;;;;;6.00;5.67;;;;;26.13;57.82;98393.44;6033852;22;104601;-96
2022/08/25 21:43:04;;;;;;;;;6.67;6.67;;;;;26.16;57.52;98396.41;6047887;22;105750;-96
2022/08/25 21:45:41;;;;;;;;;4.00;2.00;;;;;26.13;58.01;98390.69;6105606;22;101865;-96
2022/08/25 21:48:16;;;;;;;;;6.00;5.33;;;;;26.17;57.81;98392.53;6038778;22;102211;-96
2022/08/25 21:50:48;;;;;;;;;7.00;7.00;;;;;26.13;57.90;98391.50;6095569;22;102548;-96
2022/08/25 21:53:17;;;;;;;;;5.00;5.00;;;;;26.21;57.79;98394.72;6026733;22;108357;-96
2022/08/25 21:55:45;;;;;;;;;7.67;7.00;;;;;26.11;57.79;98387.41;6100451;22;102169;-96
2022/08/25 21:58:13;;;;;;;;;7.00;6.67;;;;;26.13;57.80;98380.41;6056623;22;102191;-96
2022/08/25 22:00:42;;;;;;;;;7.67;7.00;;;;;26.15;57.87;98392.03;6049972;22;104117;-96
2022/08/25 22:03:12;;;;;;;;;8.00;6.33;;;;;26.16;57.90;98385.31;6066184;22;103224;-96
2022/08/25 22:05:42;;;;;;;;;5.67;5.67;;;;;26.12;57.74;98381.53;5980632;22;101843;-96
2022/08/25 22:08:14;;;;;;;;;6.67;6.00;;;;;26.17;57.86;98380.59;6016387;22;102261;-96
2022/08/25 22:10:45;;;;;;;;;5.67;5.00;;;;;26.14;57.77;98384.84;6018757;22;102252;-96
2022/08/25 22:13:13;;;;;;;;;7.67;7.00;;;;;26.19;57.76;98381.97;5994367;22;103834;-96
2022/08/25 22:15:45;;;;;;;;;8.00;8.00;;;;;26.13;57.90;98376.81;6025912;22;102521;-96
2022/08/25 22:18:21;;;;;;;;;6.00;6.00;;;;;26.14;57.80;98381.22;6047802;22;102187;-96
2022/08/25 22:20:49;;;;;;;;;6.67;6.00;;;;;26.16;57.83;98382.56;6014496;22;101948;-96
2022/08/25 22:23:23;;;;;;;;;8.67;7.00;;;;;26.18;57.43;98379.50;5988824;22;108343;-97
2022/08/25 22:25:54;;;;;;;;;6.67;6.33;;;;;26.19;57.75;98387.50;6009616;22;102769;-96
2022/08/25 22:28:29;;;;;;;;;6.00;5.33;;;;;26.13;57.74;98385.13;5947491;22;102471;-96
2022/08/25 22:31:00;;;;;;;;;5.67;4.67;;;;;26.16;57.65;98390.09;6003254;22;102241;-96
2022/08/25 22:33:33;;;;;;;;;7.00;7.00;;;;;26.16;57.70;98384.53;6089878;22;103320;-96
2022/08/25 22:36:25;;;;;;;;;4.67;3.33;;;;;26.18;57.84;98390.56;6068690;22;102090;-96
2022/08/25 22:38:57;;;;;;;;;6.00;5.00;;;;;26.14;57.60;98378.47;5998462;22;102362;-96
2022/08/25 22:41:26;;;;;;;;;6.33;6.33;;;;;26.17;57.64;98383.38;6067861;22;102154;-96
2022/08/25 22:43:56;;;;;;;;;7.00;7.00;;;;;26.14;57.55;98372.91;6018791;22;102624;-96
2022/08/25 22:46:31;;;;;;;;;6.00;6.00;;;;;26.14;57.80;98382.06;6031284;22;102429;-96
2022/08/25 22:49:01;;;;;;;;;6.00;5.67;;;;;26.13;57.69;98374.03;6144793;22;102158;-96
2022/08/25 22:51:30;;;;;;;;;7.33;6.33;;;;;26.17;57.55;98378.66;6142475;22;108269;-96
2022/08/25 22:54:00;;;;;;;;;7.00;6.00;;;;;26.14;57.77;98379.28;6042479;22;103355;-96
2022/08/25 22:56:32;;;;;;;;;7.00;7.00;;;;;26.13;57.51;98376.81;6083487;22;104004;-96
2022/08/25 22:59:07;;;;;;;;;5.00;5.00;;;;;26.13;57.57;98365.72;6067198;22;102302;-96
2022/08/25 23:01:35;;;;;;;;;7.33;7.33;;;;;26.17;57.83;98375.91;5957457;22;102162;-96
2022/08/25 23:04:07;;;;;;;;;7.00;5.00;;;;;26.16;57.64;98365.94;5970882;22;104325;-96
2022/08/25 23:06:43;;;;;;;;;8.00;7.00;;;;;26.13;57.48;98363.78;5987966;22;102446;-96
2022/08/25 23:09:15;;;;;;;;;5.67;5.67;;;;;26.17;57.35;98369.53;6027100;22;101920;-96
2022/08/25 23:11:47;;;;;;;;;6.67;5.33;;;;;26.15;57.48;98360.72;5977404;22;102033;-96
2022/08/25 23:14:18;;;;;;;;;6.00;6.00;;;;;26.19;57.41;98373.66;5959863;23;106639;-96
2022/08/25 23:16:50;;;;;;;;;5.33;5.33;;;;;26.12;57.44;98355.75;5971005;22;102080;-96
2022/08/25 23:19:21;;;;;;;;;7.67;7.67;;;;;26.12;57.34;98361.31;6020424;22;102353;-96
2022/08/25 23:22:10;;;;;;;;;5.00;4.67;;;;;26.16;57.30;98365.94;6016562;22;102484;-96
2022/08/25 23:24:46;;;;;;;;;7.00;7.00;;;;;26.11;57.44;98351.38;5989403;22;103045;-96
2022/08/25 23:27:17;;;;;;;;;6.67;6.67;;;;;26.10;57.26;98353.31;6010199;22;102149;-96
2022/08/25 23:29:46;;;;;;;;;7.00;7.00;;;;;26.10;57.39;98358.88;6013581;22;102246;-96
2022/08/25 23:32:17;;;;;;;;;7.00;6.33;;;;;26.10;57.58;98349.72;6031343;22;102193;-96
2022/08/25 23:34:46;;;;;;;;;4.33;4.33;;;;;26.12;57.56;98350.22;6064187;22;108700;-96
2022/08/25 23:37:15;;;;;;;;;5.33;5.00;;;;;26.10;57.52;98347.78;5936674;22;101950;-96
2022/08/25 23:39:46;;;;;;;;;7.00;7.00;;;;;26.14;57.56;98356.28;5986700;22;101812;-96
2022/08/25 23:42:16;;;;;;;;;5.00;4.33;;;;;26.06;57.59;98343.97;6066713;22;102131;-96
2022/08/25 23:44:44;;;;;;;;;6.00;6.00;;;;;26.12;57.37;98350.22;5961515;22;104147;-96
2022/08/25 23:47:12;;;;;;;;;4.67;4.67;;;;;26.12;57.38;98355.75;6012378;22;102146;-96
2022/08/25 23:49:41;;;;;;;;;5.67;5.67;;;;;26.13;57.43;98357.41;5997192;22;102010;-96
2022/08/25 23:52:10;;;;;;;;;7.67;7.00;;;;;26.05;57.63;98345.09;6041411;22;102605;-96
2022/08/25 23:54:42;;;;;;;;;6.33;6.00;;;;;26.08;57.61;98346.44;6104275;22;105291;-96
2022/08/25 23:57:12;;;;;;;;;8.67;6.00;;;;;26.06;57.31;98352.28;6081772;22;102587;-96
2022/08/25 23:59:41;;;;;;;;;6.33;6.33;;;;;26.06;57.43;98337.63;6008477;22;102310;-96
